Time;durP1;ratioP1;P1;durP2;ratioP2;P2;SDS_P1;SDS_P2;PMS_P1;PMS_P2;Temp;Humidity;BMP_temperature;BMP_pressure;BME280_temperature;BME280_humidity;BME280_pressure;Samples;Min_cycle;Max_cycle;Signal;HPM_P1;HPM_P2
2022/12/27 00:01:52;;;;;;;8.30;3.83;;;;;;;;;;10495162;28;20211;-60
2022/12/27 00:06:52;;;;;;;12.67;4.17;;;;;;;;;;10494339;28;20195;-58
2022/12/27 00:11:52;;;;;;;8.20;4.73;;;;;;;;;;10494381;28;20203;-59
2022/12/27 00:16:52;;;;;;;12.23;4.87;;;;;;;;;;10494760;28;20215;-60
2022/12/27 00:21:52;;;;;;;9.13;4.10;;;;;;;;;;10493636;28;20725;-59
2022/12/27 00:26:53;;;;;;;8.43;3.63;;;;;;;;;;10493330;28;20183;-60
2022/12/27 00:31:54;;;;;;;7.77;3.30;;;;;;;;;;10475317;28;20210;-60
2022/12/27 00:36:54;;;;;;;10.70;2.87;;;;;;;;;;10492945;28;20218;-59
2022/12/27 00:41:55;;;;;;;4.47;2.50;;;;;;;;;;10492509;28;20516;-61
2022/12/27 00:46:55;;;;;;;12.93;2.60;;;;;;;;;;10492756;28;20227;-56
2022/12/27 00:51:55;;;;;;;9.30;2.43;;;;;;;;;;10488161;28;20230;-59
2022/12/27 00:56:55;;;;;;;10.50;3.10;;;;;;;;;;10492523;28;20218;-56
2022/12/27 01:01:56;;;;;;;12.87;2.83;;;;;;;;;;10492639;28;20199;-60
2022/12/27 01:06:56;;;;;;;12.70;2.90;;;;;;;;;;10514213;22;20348;-61
2022/12/27 01:11:56;;;;;;;12.37;2.90;;;;;;;;;;10365145;28;20225;-65
2022/12/27 01:16:56;;;;;;;11.47;3.57;;;;;;;;;;10368197;28;20588;-65
2022/12/27 01:21:57;;;;;;;8.87;2.77;;;;;;;;;;10367902;28;20427;-63
2022/12/27 01:26:57;;;;;;;6.73;2.10;;;;;;;;;;10368872;28;20204;-63
2022/12/27 01:31:57;;;;;;;7.07;2.47;;;;;;;;;;10367757;28;20300;-63
2022/12/27 01:36:59;;;;;;;11.30;2.70;;;;;;;;;;10367048;28;20216;-63
2022/12/27 01:47:22;;;;;;;18.27;2.60;;;;;;;;;;10367078;28;20216;-61
2022/12/27 01:52:23;;;;;;;9.80;2.17;;;;;;;;;;10367051;28;20229;-61
2022/12/27 01:57:23;;;;;;;17.50;2.73;;;;;;;;;;10366892;28;20225;-63
2022/12/27 02:02:23;;;;;;;17.47;2.53;;;;;;;;;;10364846;28;20193;-63
2022/12/27 02:07:30;;;;;;;7.73;2.33;;;;;;;;;;10366926;28;20367;-63
2022/12/27 02:12:30;;;;;;;11.00;2.37;;;;;;;;;;10365044;28;20196;-63
2022/12/27 02:17:31;;;;;;;9.63;2.20;;;;;;;;;;10366336;28;20756;-63
2022/12/27 02:28:17;;;;;;;14.67;2.20;;;;;;;;;;10347117;28;20737;-62
2022/12/27 02:33:19;;;;;;;15.30;1.97;;;;;;;;;;10365227;28;20655;-63
2022/12/27 02:38:22;;;;;;;14.97;2.10;;;;;;;;;;10366441;28;20274;-63
2022/12/27 02:54:17;;;;;;;10.20;2.93;;;;;;;;;;10373520;28;20193;-63
2022/12/27 02:59:21;;;;;;;7.37;2.00;;;;;;;;;;10373750;28;20751;-63
2022/12/27 03:04:29;;;;;;;10.60;2.47;;;;;;;;;;10372988;28;20205;-64
2022/12/27 03:25:42;;;;;;;6.97;2.80;;;;;;;;;;10372686;28;20685;-64
2022/12/27 03:47:25;;;;;;;5.03;2.90;;;;;;;;;;10371643;28;20201;-65
2022/12/27 03:52:40;;;;;;;6.30;3.37;;;;;;;;;;10365988;28;20193;-64
2022/12/27 03:57:40;;;;;;;3.83;2.90;;;;;;;;;;10371662;28;20217;-65
2022/12/27 04:02:41;;;;;;;15.37;3.53;;;;;;;;;;10369594;28;20668;-65
2022/12/27 04:39:33;;;;;;;6.97;2.40;;;;;;;;;;10362800;28;20232;-65
2022/12/27 04:55:21;;;;;;;5.80;2.33;;;;;;;;;;10362229;28;20276;-64
2022/12/27 05:05:42;;;;;;;4.10;2.30;;;;;;;;;;10369075;28;20189;-64
2022/12/27 05:16:01;;;;;;;3.87;1.90;;;;;;;;;;10368698;28;20217;-63
2022/12/27 05:21:02;;;;;;;6.03;2.03;;;;;;;;;;10368304;28;20213;-64
2022/12/27 05:26:03;;;;;;;4.87;1.80;;;;;;;;;;10367937;28;20192;-65
2022/12/27 05:31:03;;;;;;;1.40;1.30;;;;;;;;;;10368223;28;20217;-64
2022/12/27 05:36:04;;;;;;;5.73;1.60;;;;;;;;;;10368018;28;20214;-62
2022/12/27 05:41:05;;;;;;;3.33;1.37;;;;;;;;;;10367125;28;20209;-65
2022/12/27 05:46:07;;;;;;;3.37;1.80;;;;;;;;;;10367970;28;20190;-65
2022/12/27 05:51:08;;;;;;;5.03;1.87;;;;;;;;;;10366613;28;20729;-65
2022/12/27 05:56:12;;;;;;;1.93;1.40;;;;;;;;;;10367079;28;20325;-65
2022/12/27 06:01:14;;;;;;;3.17;1.30;;;;;;;;;;10367092;28;20261;-65
2022/12/27 06:06:14;;;;;;;2.90;1.70;;;;;;;;;;10366846;28;20314;-66
2022/12/27 06:11:16;;;;;;;4.47;1.80;;;;;;;;;;10366170;28;20278;-64
2022/12/27 06:16:16;;;;;;;2.60;1.20;;;;;;;;;;10366594;28;20253;-65
2022/12/27 06:21:18;;;;;;;7.63;2.37;;;;;;;;;;10366445;28;20258;-66
2022/12/27 06:26:19;;;;;;;2.27;1.47;;;;;;;;;;10365363;28;20216;-64
2022/12/27 06:31:20;;;;;;;4.00;1.70;;;;;;;;;;10364110;28;20594;-66
2022/12/27 06:36:22;;;;;;;3.17;2.07;;;;;;;;;;10365686;28;20216;-66
2022/12/27 06:41:22;;;;;;;7.70;1.40;;;;;;;;;;10365709;28;20262;-65
2022/12/27 06:46:23;;;;;;;6.43;1.20;;;;;;;;;;10366272;28;20282;-65
2022/12/27 06:51:24;;;;;;;3.80;1.50;;;;;;;;;;10365404;28;20267;-64
2022/12/27 06:56:24;;;;;;;4.07;1.60;;;;;;;;;;10365792;28;20221;-65
2022/12/27 07:01:25;;;;;;;6.50;1.90;;;;;;;;;;10365402;28;20259;-65
2022/12/27 07:06:27;;;;;;;2.20;1.67;;;;;;;;;;10365337;28;20197;-65
2022/12/27 07:11:27;;;;;;;10.30;1.73;;;;;;;;;;10437318;23;20714;-57
2022/12/27 07:16:28;;;;;;;5.30;1.73;;;;;;;;;;10414794;28;20217;-57
2022/12/27 07:21:28;;;;;;;3.70;1.73;;;;;;;;;;10405330;28;20247;-60
2022/12/27 07:26:29;;;;;;;6.90;3.90;;;;;;;;;;10406300;28;20187;-60
2022/12/27 07:31:31;;;;;;;5.77;1.70;;;;;;;;;;10405707;28;20246;-58
2022/12/27 07:36:34;;;;;;;7.33;1.50;;;;;;;;;;10419996;28;20611;-60
2022/12/27 07:41:35;;;;;;;5.37;2.07;;;;;;;;;;10451347;28;20208;-60
2022/12/27 07:46:35;;;;;;;4.23;1.53;;;;;;;;;;10455538;28;20564;-57
2022/12/27 07:51:35;;;;;;;11.63;1.93;;;;;;;;;;10454049;28;20778;-60
2022/12/27 07:56:35;;;;;;;3.07;1.70;;;;;;;;;;10426919;28;20223;-60
2022/12/27 08:07:00;;;;;;;6.10;2.23;;;;;;;;;;10448349;28;20255;-60
2022/12/27 08:12:01;;;;;;;3.43;1.97;;;;;;;;;;10442721;28;20266;-58
2022/12/27 08:17:13;;;;;;;9.33;3.17;;;;;;;;;;10445611;28;20245;-59
2022/12/27 08:22:14;;;;;;;3.70;1.93;;;;;;;;;;10445685;28;20533;-60
2022/12/27 08:27:21;;;;;;;5.70;2.10;;;;;;;;;;10413930;28;20198;-61
2022/12/27 08:32:21;;;;;;;4.43;2.10;;;;;;;;;;10405043;28;20199;-61
2022/12/27 08:37:21;;;;;;;4.00;2.20;;;;;;;;;;10404338;28;20223;-59
2022/12/27 08:42:22;;;;;;;7.83;2.47;;;;;;;;;;10414889;28;20699;-62
2022/12/27 08:47:22;;;;;;;6.57;2.43;;;;;;;;;;10444660;28;20206;-60
2022/12/27 08:52:23;;;;;;;7.00;1.90;;;;;;;;;;10446163;28;20210;-61
2022/12/27 08:57:23;;;;;;;6.00;1.77;;;;;;;;;;10425079;28;20222;-58
2022/12/27 09:02:23;;;;;;;4.20;2.47;;;;;;;;;;10416053;28;20273;-61
2022/12/27 09:07:23;;;;;;;8.23;2.43;;;;;;;;;;10445400;28;20607;-59
2022/12/27 09:12:23;;;;;;;8.03;2.10;;;;;;;;;;10441665;28;20291;-59
2022/12/27 09:17:24;;;;;;;9.27;1.93;;;;;;;;;;10441295;28;20218;-62
2022/12/27 09:22:24;;;;;;;5.10;2.00;;;;;;;;;;10443313;28;20191;-57
2022/12/27 09:27:24;;;;;;;4.37;1.70;;;;;;;;;;10442542;28;20230;-60
2022/12/27 09:32:26;;;;;;;5.47;1.87;;;;;;;;;;10440626;28;20195;-62
2022/12/27 09:37:26;;;;;;;8.40;1.90;;;;;;;;;;10441001;28;20223;-62
2022/12/27 09:42:36;;;;;;;9.90;5.10;;;;;;;;;;10443678;28;20623;-56
2022/12/27 09:47:36;;;;;;;7.83;2.40;;;;;;;;;;10441823;28;20218;-59
2022/12/27 09:52:42;;;;;;;4.77;1.80;;;;;;;;;;10441719;28;20187;-60
2022/12/27 09:57:44;;;;;;;3.97;1.90;;;;;;;;;;10443670;28;20227;-58
2022/12/27 10:02:45;;;;;;;4.33;1.90;;;;;;;;;;10440891;28;20713;-61
2022/12/27 10:07:45;;;;;;;3.07;1.43;;;;;;;;;;10439775;28;20617;-61
2022/12/27 10:12:45;;;;;;;3.63;2.00;;;;;;;;;;10439946;28;20211;-62
2022/12/27 10:18:05;;;;;;;3.30;1.90;;;;;;;;;;10436686;28;20297;-63
2022/12/27 10:23:19;;;;;;;1.30;1.20;;;;;;;;;;10439321;28;20192;-56
2022/12/27 10:28:24;;;;;;;7.97;2.63;;;;;;;;;;10438849;28;20223;-60
2022/12/27 10:33:26;;;;;;;5.57;2.27;;;;;;;;;;10442199;28;20200;-55
2022/12/27 10:38:30;;;;;;;5.47;1.70;;;;;;;;;;10441652;28;20228;-58
2022/12/27 10:43:34;;;;;;;4.47;2.10;;;;;;;;;;10436708;28;20199;-60
2022/12/27 10:48:34;;;;;;;5.43;2.07;;;;;;;;;;10411245;28;20212;-61
2022/12/27 10:53:36;;;;;;;5.30;1.83;;;;;;;;;;10437034;28;20584;-62
2022/12/27 10:58:38;;;;;;;5.67;1.50;;;;;;;;;;10438655;28;20224;-61
2022/12/27 11:03:38;;;;;;;4.57;1.60;;;;;;;;;;10439185;28;20203;-61
2022/12/27 11:08:38;;;;;;;7.13;1.73;;;;;;;;;;10440383;28;20239;-58
2022/12/27 11:13:39;;;;;;;8.43;2.00;;;;;;;;;;10446506;28;20205;-59
2022/12/27 11:18:43;;;;;;;8.47;1.57;;;;;;;;;;10447962;28;20722;-61
2022/12/27 11:23:49;;;;;;;2.73;1.50;;;;;;;;;;10444947;28;20510;-65
2022/12/27 11:28:53;;;;;;;3.97;1.70;;;;;;;;;;10446317;28;20231;-59
2022/12/27 11:33:54;;;;;;;3.27;1.70;;;;;;;;;;10446115;28;20203;-59
2022/12/27 11:38:55;;;;;;;3.30;1.70;;;;;;;;;;10439483;28;20220;-58
2022/12/27 11:44:15;;;;;;;13.23;2.13;;;;;;;;;;10444320;28;20192;-60
2022/12/27 11:49:19;;;;;;;6.80;1.60;;;;;;;;;;10438057;28;20219;-55
2022/12/27 11:54:22;;;;;;;6.77;1.70;;;;;;;;;;10420981;28;20189;-63
2022/12/27 11:59:24;;;;;;;3.33;1.50;;;;;;;;;;10442178;28;20232;-61
2022/12/27 12:04:36;;;;;;;5.53;2.10;;;;;;;;;;10445280;28;20567;-61
2022/12/27 12:09:45;;;;;;;7.07;1.37;;;;;;;;;;10444236;28;20244;-61
2022/12/27 12:15:05;;;;;;;5.97;1.40;;;;;;;;;;10443152;28;20199;-58
2022/12/27 12:20:24;;;;;;;3.67;1.60;;;;;;;;;;10442977;28;20235;-59
2022/12/27 12:25:30;;;;;;;6.23;2.00;;;;;;;;;;10443971;28;20203;-60
2022/12/27 12:30:38;;;;;;;4.77;1.70;;;;;;;;;;10443766;28;20208;-63
2022/12/27 12:36:04;;;;;;;1.87;1.47;;;;;;;;;;10442061;28;20191;-57
2022/12/27 12:41:23;;;;;;;5.40;1.60;;;;;;;;;;10443375;28;20227;-60
2022/12/27 12:46:37;;;;;;;6.03;1.70;;;;;;;;;;10443180;28;20184;-61
2022/12/27 12:51:40;;;;;;;2.77;1.43;;;;;;;;;;10442438;28;20316;-61
2022/12/27 12:56:58;;;;;;;4.97;1.50;;;;;;;;;;10442396;28;20211;-61
2022/12/27 13:02:19;;;;;;;3.47;1.87;;;;;;;;;;10442364;28;20208;-63
2022/12/27 13:07:31;;;;;;;4.63;1.60;;;;;;;;;;10426691;28;20196;-59
2022/12/27 13:12:38;;;;;;;3.37;1.67;;;;;;;;;;10415240;22;20320;-65
2022/12/27 13:17:50;;;;;;;6.60;2.53;;;;;;;;;;10357624;28;20217;-66
2022/12/27 13:23:02;;;;;;;2.80;1.67;;;;;;;;;;10358834;28;20205;-65
2022/12/27 13:28:24;;;;;;;3.87;1.50;;;;;;;;;;10359801;28;20288;-66
2022/12/27 13:33:29;;;;;;;2.47;1.30;;;;;;;;;;10358010;28;20563;-66
2022/12/27 13:38:37;;;;;;;3.33;1.40;;;;;;;;;;10356784;28;20239;-66
2022/12/27 13:43:53;;;;;;;2.10;1.90;;;;;;;;;;10356022;28;20212;-66
2022/12/27 13:48:59;;;;;;;4.03;1.40;;;;;;;;;;10357783;28;20192;-66
2022/12/27 13:54:19;;;;;;;6.13;1.73;;;;;;;;;;10358073;28;20205;-64
2022/12/27 13:59:39;;;;;;;4.30;1.70;;;;;;;;;;10358977;28;20742;-64
2022/12/27 14:05:09;;;;;;;5.33;1.63;;;;;;;;;;10355796;28;20244;-64
2022/12/27 14:10:24;;;;;;;4.57;2.17;;;;;;;;;;10297997;28;20944;-65
2022/12/27 14:15:36;;;;;;;6.33;2.00;;;;;;;;;;10316935;28;20201;-66
2022/12/27 14:20:43;;;;;;;9.33;2.87;;;;;;;;;;10317892;28;20237;-66
2022/12/27 14:25:52;;;;;;;8.43;2.40;;;;;;;;;;10330039;28;20185;-66
2022/12/27 14:31:04;;;;;;;2.53;1.60;;;;;;;;;;10362874;28;20209;-66
2022/12/27 14:36:14;;;;;;;6.27;2.40;;;;;;;;;;10361953;28;20833;-65
2022/12/27 14:41:27;;;;;;;5.27;1.77;;;;;;;;;;10361848;28;20640;-63
2022/12/27 14:46:49;;;;;;;3.33;1.67;;;;;;;;;;10365697;28;20702;-66
2022/12/27 14:51:50;;;;;;;5.63;2.30;;;;;;;;;;10373574;28;20217;-66
2022/12/27 14:56:55;;;;;;;4.80;1.90;;;;;;;;;;10362887;28;20230;-66
2022/12/27 15:02:05;;;;;;;4.63;1.93;;;;;;;;;;10360520;28;20206;-66
2022/12/27 15:07:05;;;;;;;4.97;2.63;;;;;;;;;;10362267;28;20217;-64
2022/12/27 15:12:13;;;;;;;3.53;2.13;;;;;;;;;;10362005;28;20323;-64
2022/12/27 15:17:32;;;;;;;4.03;1.83;;;;;;;;;;10401727;28;20224;-64
2022/12/27 15:22:44;;;;;;;3.40;1.80;;;;;;;;;;10374604;28;20212;-63
2022/12/27 15:27:44;;;;;;;5.33;2.37;;;;;;;;;;10335302;28;20194;-65
2022/12/27 15:32:58;;;;;;;6.07;2.40;;;;;;;;;;10321352;28;20209;-66
2022/12/27 15:38:04;;;;;;;4.93;2.10;;;;;;;;;;10323779;28;20221;-66
2022/12/27 15:43:23;;;;;;;4.90;2.20;;;;;;;;;;10362267;28;20216;-66
2022/12/27 15:48:35;;;;;;;6.13;3.57;;;;;;;;;;10350573;28;20250;-66
2022/12/27 15:53:56;;;;;;;6.00;3.27;;;;;;;;;;10388803;28;20261;-65
2022/12/27 15:59:14;;;;;;;8.87;2.87;;;;;;;;;;10397110;28;20211;-66
2022/12/27 16:04:38;;;;;;;6.33;3.23;;;;;;;;;;10348516;28;20260;-67
2022/12/27 16:09:38;;;;;;;9.23;3.73;;;;;;;;;;10328804;28;20564;-64
2022/12/27 16:14:40;;;;;;;4.80;2.50;;;;;;;;;;10366052;28;20200;-65
2022/12/27 16:19:49;;;;;;;4.73;2.13;;;;;;;;;;10368903;28;22155;-66
2022/12/27 16:24:49;;;;;;;9.70;2.97;;;;;;;;;;10368374;28;20200;-66
2022/12/27 16:29:50;;;;;;;4.77;1.90;;;;;;;;;;10367540;28;20207;-66
2022/12/27 16:34:53;;;;;;;5.73;1.83;;;;;;;;;;10369844;28;20201;-66
2022/12/27 16:40:04;;;;;;;4.77;2.13;;;;;;;;;;10369956;28;20230;-65
2022/12/27 16:45:23;;;;;;;3.60;1.73;;;;;;;;;;10362481;28;20193;-67
2022/12/27 16:50:34;;;;;;;7.63;1.80;;;;;;;;;;10367592;28;20215;-66
2022/12/27 16:55:43;;;;;;;6.07;2.00;;;;;;;;;;10372916;28;20199;-67
2022/12/27 17:00:44;;;;;;;6.90;2.10;;;;;;;;;;10407850;28;20220;-67
2022/12/27 17:05:44;;;;;;;4.60;2.07;;;;;;;;;;10408913;28;20184;-68
2022/12/27 17:10:51;;;;;;;5.57;2.10;;;;;;;;;;10409295;28;20240;-67
2022/12/27 17:15:56;;;;;;;3.80;1.77;;;;;;;;;;10382583;28;20221;-67
2022/12/27 17:21:03;;;;;;;4.40;2.00;;;;;;;;;;10393853;28;20212;-67
2022/12/27 17:26:18;;;;;;;3.80;2.03;;;;;;;;;;10409556;28;20199;-66
2022/12/27 17:31:24;;;;;;;7.40;2.60;;;;;;;;;;10367301;28;20363;-67
2022/12/27 17:36:36;;;;;;;3.83;1.80;;;;;;;;;;10382518;28;20273;-67
2022/12/27 17:47:24;;;;;;;7.80;2.37;;;;;;;;;;10391749;28;20315;-64
2022/12/27 17:57:54;;;;;;;6.27;3.77;;;;;;;;;;10326534;28;20725;-65
2022/12/27 18:02:55;;;;;;;25.00;13.10;;;;;;;;;;10325659;28;20248;-67
2022/12/27 18:08:03;;;;;;;13.30;5.67;;;;;;;;;;10326470;28;20186;-67
2022/12/27 18:13:04;;;;;;;8.60;2.57;;;;;;;;;;10328150;28;20633;-67
2022/12/27 18:18:05;;;;;;;7.07;6.37;;;;;;;;;;10363284;28;20304;-66
2022/12/27 18:23:12;;;;;;;6.93;3.07;;;;;;;;;;10362701;28;20244;-67
2022/12/27 18:28:20;;;;;;;7.43;3.30;;;;;;;;;;10364311;28;20197;-66
2022/12/27 18:33:30;;;;;;;11.23;3.70;;;;;;;;;;10364234;28;21006;-66
2022/12/27 18:38:33;;;;;;;6.30;2.50;;;;;;;;;;10364894;28;20223;-66
2022/12/27 18:43:35;;;;;;;5.30;3.00;;;;;;;;;;10364282;28;20710;-66
2022/12/27 18:48:35;;;;;;;9.43;3.47;;;;;;;;;;10364101;28;20192;-65
2022/12/27 18:53:37;;;;;;;10.30;3.43;;;;;;;;;;10360639;28;20213;-64
2022/12/27 18:58:37;;;;;;;6.43;2.77;;;;;;;;;;10362640;28;20221;-67
2022/12/27 19:03:37;;;;;;;6.20;2.17;;;;;;;;;;10361316;28;20208;-67
2022/12/27 19:08:42;;;;;;;8.87;4.30;;;;;;;;;;10363316;28;20196;-67
2022/12/27 19:13:47;;;;;;;12.47;4.20;;;;;;;;;;10439947;23;20759;-62
2022/12/27 19:18:52;;;;;;;11.30;5.43;;;;;;;;;;10487648;28;20273;-60
2022/12/27 19:23:52;;;;;;;20.87;6.47;;;;;;;;;;10486685;28;20209;-58
2022/12/27 19:29:15;;;;;;;6.60;2.63;;;;;;;;;;10488537;28;20198;-62
2022/12/27 19:34:16;;;;;;;11.33;3.93;;;;;;;;;;10483572;28;20230;-62
2022/12/27 19:39:19;;;;;;;7.60;3.20;;;;;;;;;;10477980;28;20215;-61
2022/12/27 19:44:19;;;;;;;6.23;2.37;;;;;;;;;;10454790;28;20211;-62
2022/12/27 19:49:21;;;;;;;8.00;2.33;;;;;;;;;;10454659;28;20666;-62
2022/12/27 19:54:23;;;;;;;4.90;2.47;;;;;;;;;;10453961;28;20462;-61
2022/12/27 19:59:23;;;;;;;4.57;1.80;;;;;;;;;;10454384;28;20712;-63
2022/12/27 20:04:23;;;;;;;2.47;1.60;;;;;;;;;;10454430;28;20207;-61
2022/12/27 20:09:24;;;;;;;2.27;2.00;;;;;;;;;;10453804;28;20195;-61
2022/12/27 20:14:24;;;;;;;4.93;1.90;;;;;;;;;;10452367;28;20697;-63
2022/12/27 20:19:24;;;;;;;6.03;2.10;;;;;;;;;;10453721;28;20599;-62
2022/12/27 20:24:24;;;;;;;6.30;1.80;;;;;;;;;;10452399;28;20674;-59
2022/12/27 20:29:26;;;;;;;5.63;2.27;;;;;;;;;;10453853;28;20192;-63
2022/12/27 20:34:26;;;;;;;4.43;1.50;;;;;;;;;;10453566;28;20225;-59
2022/12/27 20:39:26;;;;;;;2.63;2.13;;;;;;;;;;10452595;28;20221;-61
2022/12/27 20:44:26;;;;;;;40.17;15.27;;;;;;;;;;10450942;28;20216;-62
2022/12/27 20:49:27;;;;;;;17.47;5.73;;;;;;;;;;10452833;28;20904;-63
2022/12/27 20:54:27;;;;;;;19.67;8.57;;;;;;;;;;10451142;28;20214;-63
2022/12/27 20:59:27;;;;;;;13.70;5.57;;;;;;;;;;10452507;28;20489;-59
2022/12/27 21:04:27;;;;;;;9.47;3.83;;;;;;;;;;10451951;28;20586;-63
2022/12/27 21:09:27;;;;;;;24.07;10.47;;;;;;;;;;10451094;28;20610;-63
2022/12/27 21:14:28;;;;;;;6.90;3.20;;;;;;;;;;10450653;28;20289;-63
2022/12/27 21:19:28;;;;;;;3.37;2.20;;;;;;;;;;10450680;28;20211;-62
2022/12/27 21:24:28;;;;;;;3.20;2.00;;;;;;;;;;10450726;28;20261;-61
2022/12/27 21:29:29;;;;;;;5.03;1.47;;;;;;;;;;10450967;28;20274;-61
2022/12/27 21:34:29;;;;;;;3.53;1.40;;;;;;;;;;10450701;28;20768;-60
2022/12/27 21:39:32;;;;;;;8.07;1.53;;;;;;;;;;10450511;28;20698;-63
2022/12/27 21:44:34;;;;;;;3.30;1.50;;;;;;;;;;10449745;28;20249;-60
2022/12/27 21:49:35;;;;;;;5.83;1.70;;;;;;;;;;10450092;28;20196;-61
2022/12/27 21:54:35;;;;;;;2.63;1.63;;;;;;;;;;10477756;28;20206;-61
2022/12/27 21:59:35;;;;;;;2.33;1.63;;;;;;;;;;10491527;28;20248;-63
2022/12/27 22:04:35;;;;;;;4.40;1.67;;;;;;;;;;10490366;28;20218;-62
2022/12/27 22:09:36;;;;;;;4.33;1.80;;;;;;;;;;10491020;28;20197;-62
2022/12/27 22:14:36;;;;;;;9.43;2.20;;;;;;;;;;10489211;28;20246;-61
2022/12/27 22:19:36;;;;;;;3.10;1.30;;;;;;;;;;10489910;28;20309;-60
2022/12/27 22:24:36;;;;;;;8.03;3.53;;;;;;;;;;10489385;28;20303;-58
2022/12/27 22:29:36;;;;;;;5.73;1.80;;;;;;;;;;10490582;28;20190;-59
2022/12/27 22:34:36;;;;;;;5.03;1.43;;;;;;;;;;10490561;28;20207;-61
2022/12/27 22:39:37;;;;;;;5.93;1.63;;;;;;;;;;10489526;28;20226;-61
2022/12/27 22:44:37;;;;;;;3.73;1.40;;;;;;;;;;10472051;28;20634;-60
2022/12/27 22:49:37;;;;;;;2.43;1.60;;;;;;;;;;10464836;28;20306;-61
2022/12/27 22:54:37;;;;;;;2.07;1.20;;;;;;;;;;10448136;28;20222;-61
2022/12/27 22:59:37;;;;;;;4.37;1.57;;;;;;;;;;10449788;28;20218;-61
2022/12/27 23:04:37;;;;;;;5.27;1.60;;;;;;;;;;10489935;28;20250;-62
2022/12/27 23:09:38;;;;;;;1.73;1.40;;;;;;;;;;10498033;28;20233;-61
2022/12/27 23:14:39;;;;;;;4.88;1.42;;;;;;;;;;10496394;28;20235;-65
2022/12/27 23:19:39;;;;;;;1.77;1.40;;;;;;;;;;10496837;28;20227;-62
2022/12/27 23:24:39;;;;;;;2.03;1.10;;;;;;;;;;10496540;28;20203;-62
2022/12/27 23:29:39;;;;;;;4.93;1.67;;;;;;;;;;10497444;28;20196;-62
2022/12/27 23:34:39;;;;;;;3.77;1.20;;;;;;;;;;10496219;28;20217;-62
2022/12/27 23:39:40;;;;;;;6.37;1.50;;;;;;;;;;10496776;28;20261;-62
2022/12/27 23:44:40;;;;;;;1.63;1.53;;;;;;;;;;10495241;28;20207;-60
2022/12/27 23:49:40;;;;;;;3.10;1.40;;;;;;;;;;10496165;28;20232;-59
2022/12/27 23:54:40;;;;;;;1.80;1.13;;;;;;;;;;10495844;28;20217;-59
2022/12/27 23:59:40;;;;;;;3.57;1.60;;;;;;;;;;10495991;28;20219;-61
